Погода Навабганйна 2 недели

Дакка, Бангладеш

03 - 16 марта
  • 03марта
    Сегодня
    +18°
    +29°
    Практически безоблачно
    ВремяПогодаТемператураВлажностьДавлениеВетер, м/сВероятность осадков
    00:00Ясно и безоблачно+19°C70 %758 мм1.1 м/с2 %
    03:00Ясно и безоблачно+19°C84 %757 мм1.1 м/с2 %
    06:00Ясно и безоблачно+16°C91 %757 мм1.9 м/с2 %
    09:00Ясно и безоблачно+21°C68 %759 мм0.9 м/с2 %
    12:00Ясно и безоблачно+26°C46 %759 мм1.5 м/с2 %
    15:00Практически безоблачно+28°C45 %756 мм2.5 м/с2 %
    18:00Пасмурно, сплошная облачность+26°C59 %755 мм2.4 м/с2 %
    21:00Пасмурно, сплошная облачность+23°C64 %757 мм2.8 м/с4 %
  • 04марта
    Понедельник
    +17°
    +29°
    Небольшая облачность
    ВремяПогодаТемператураВлажностьДавлениеВетер, м/сВероятность осадков
    00:00Небольшая облачность+21°C75 %757 мм1.6 м/с3 %
    03:00Облачно с прояснениями+23°C77 %756 мм1.0 м/с24 %
    06:00Ясно и безоблачно+19°C91 %757 мм1.4 м/с6 %
    09:00Ясно и безоблачно+22°C71 %759 мм0.1 м/с2 %
    12:00Ясно и безоблачно+26°C58 %758 мм0.3 м/с2 %
    15:00Небольшая облачность+28°C55 %755 мм1.5 м/с2 %
    18:00Практически безоблачно+26°C68 %756 мм2.2 м/с27 %
    21:00Ясно и безоблачно+21°C87 %757 мм2.2 м/с8 %
  • 05марта
    Вторник
    +13°
    +29°
    Ясно и безоблачно
    ВремяПогодаТемператураВлажностьДавлениеВетер, м/сВероятность осадков
    00:00Ясно и безоблачно+21°C93 %757 мм1.9 м/с2 %
    03:00Ясно и безоблачно+22°C85 %757 мм2.1 м/с2 %
    06:00Ясно и безоблачно+18°C84 %757 мм2.1 м/с2 %
    09:00Ясно и безоблачно+22°C63 %759 мм2.9 м/с2 %
    12:00Ясно и безоблачно+26°C48 %759 мм4.1 м/с2 %
    15:00Ясно и безоблачно+28°C35 %756 мм5.0 м/с2 %
    18:00Ясно и безоблачно+24°C43 %755 мм2.4 м/с2 %
    21:00Ясно и безоблачно+20°C49 %757 мм2.9 м/с2 %
  • 06марта
    Среда
    +13°
    +27°
    Ясно и безоблачно
    ВремяПогодаТемператураВлажностьДавлениеВетер, м/сВероятность осадков
    00:00Ясно и безоблачно+17°C55 %757 мм2.4 м/с2 %
    03:00Ясно и безоблачно+18°C62 %757 мм2.6 м/с2 %
    06:00Ясно и безоблачно+14°C66 %757 мм2.4 м/с2 %
    09:00Ясно и безоблачно+19°C48 %760 мм1.8 м/с2 %
    12:00Ясно и безоблачно+23°C38 %759 мм2.6 м/с2 %
    15:00Ясно и безоблачно+26°C33 %756 мм2.5 м/с2 %
    18:00Ясно и безоблачно+23°C47 %755 мм1.7 м/с2 %
    21:00Ясно и безоблачно+19°C57 %757 мм1.7 м/с2 %
  • 07марта
    Четверг
    +14°
    +27°
    Ясно и безоблачно
    ВремяПогодаТемператураВлажностьДавлениеВетер, м/сВероятность осадков
    00:00Ясно и безоблачно+18°C67 %757 мм2.0 м/с2 %
    03:00Ясно и безоблачно+19°C70 %756 мм1.6 м/с2 %
    06:00Ясно и безоблачно+14°C86 %757 мм1.8 м/с2 %
    09:00Ясно и безоблачно+19°C50 %759 мм1.5 м/с2 %
    12:00Ясно и безоблачно+24°C34 %759 мм2.1 м/с2 %
    15:00Ясно и безоблачно+26°C32 %756 мм2.2 м/с2 %
    18:00Ясно и безоблачно+25°C49 %755 мм1.3 м/с2 %
    21:00Ясно и безоблачно+22°C50 %757 мм1.3 м/с2 %
Мы используем cookies
Соглашаюсь